WEATHER DATA

YESTERDAY
Time Temp. Dewp. Hum. Wind dir Wind speed Wind gust Bar. 1h Prec. 24h Prec.
00:08 17.4 11.9 70 0 0.6 1018.6 0.0000 0.0000
00:18 17.3 11.8 70 0 0.6 1018.6 0.0000 0.0000
00:28 17.3 11.8 70 0 0.6 1018.6 0.0000 0.0000
00:38 17.2 11.7 70 0 0.6 1018.4 0.0000 0.0000
00:49 17.2 11.9 71 0 0.3 1018.3 0.0000 0.0000
00:59 17.1 11.8 71 168 0.3 0.6 1018.4 0.0000 0.0000
01:09 17 11.7 71 0 0.3 1018.4 0.0000 0.0000
01:19 17 11.7 71 0 0.6 1018.4 0.0000 0.0000
01:29 17 11.7 71 0 0.3 1018.3 0.0000 0.0000
01:39 17 11.9 72 0 0.6 1018.4 0.0000 0.0000
01:49 16.9 11.6 71 153 0.3 0.6 1018.7 0.0000 0.0000
02:00 16.8 11.5 71 0 0.6 1018.3 0.0000 0.0000
02:10 16.7 11.6 72 0 0.6 1018.3 0.0000 0.0000
02:20 16.6 11.5 72 135 0.3 0.6 1018.2 0.0000 0.0000
02:29 16.6 11.5 72 180 0.3 0.6 1018 0.0000 0.0000
02:40 16.4 11.3 72 225 0.3 0.8 1018.1 0.0000 0.0000
02:50 16.4 11.6 73 221 0.3 0.8 1018.4 0.0000 0.0000
03:00 16.4 11.6 73 221 0.3 0.8 1018.4 0.0000 0.0000
03:10 16.4 11.6 73 232 0.3 0.8 1018.1 0.0000 0.0000
03:21 16.3 11.5 73 225 0.3 0.8 1018 0.0000 0.0000
03:30 16.3 11.5 73 225 0.3 0.8 1018 0.0000 0.0000
03:40 16.2 11.4 73 221 0.3 0.8 1018 0.0000 0.0000
03:51 16.1 11.3 73 221 0.3 0.8 1018 0.0000 0.0000
04:01 16 11.4 74 228 0.3 0.8 1018 0.0000 0.0000
04:11 15.9 11.3 74 228 0.6 0.8 1018.1 0.0000 0.0000
04:21 15.9 11.3 74 225 0.3 0.8 1018 0.0000 0.0000
04:31 15.9 11.3 74 225 0.6 0.8 1018 0.0000 0.0000
04:41 15.8 11.2 74 227 0.6 0.8 1018.2 0.0000 0.0000
04:51 15.7 11.1 74 225 0.6 0.8 1018.3 0.0000 0.0000
05:02 15.7 11.3 75 218 0.3 0.8 1018.6 0.0000 0.0000
05:12 15.7 11.1 74 225 0.3 0.8 1018.6 0.0000 0.0000
05:22 15.8 11.2 74 232 0.3 0.6 1018.4 0.0000 0.0000
05:31 15.8 11.2 74 232 0.3 0.6 1018.4 0.0000 0.0000
05:42 15.9 11.3 74 225 0.3 0.6 1018.6 0.0000 0.0000
05:52 15.9 11.1 73 225 0.3 0.6 1018.4 0.0000 0.0000
06:02 15.9 11.3 74 228 0.3 0.6 1018.6 0.0000 0.0000
06:18 16.6 11.5 72 225 0.3 0.6 1018.7 0.0000 0.0000
06:28 16.4 11.3 72 225 0.3 0.6 1018.3 0.0000 0.0000
06:37 16.6 12.4 76 217 0.3 0.8 1018.3 0.0000 0.0000
06:47 16.6 11.5 72 225 0.3 0.8 1018.2 0.0000 0.0000
06:58 17 12.3 74 215 0.3 0.8 1018.3 0.0000 0.0000
07:08 16.7 11.4 71 221 0.3 0.8 1018.1 0.0000 0.0000
07:18 16.4 11.3 72 225 0.6 0.8 1017.6 0.0000 0.0000
07:29 16.1 11.3 73 225 0.3 0.8 1017.6 0.0000 0.0000
07:38 16 11.2 73 225 0.3 0.8 1017.9 0.0000 0.0000
07:48 15.8 11.2 74 225 0.3 0.6 1017.9 0.0000 0.0000
07:58 15.7 11.1 74 221 0.3 0.8 1018.2 0.0000 0.0000
08:09 15.7 11.1 74 225 0.3 0.8 1018.3 0.0000 0.0000
08:19 15.7 11.1 74 168 0.3 0.6 1018.4 0.0000 0.0000
08:29 15.8 11.2 74 135 0.3 0.6 1018.6 0.0000 0.0000
08:39 15.8 11 73 0 0.6 1018.8 0.0000 0.0000
08:49 15.8 11 73 156 0.3 0.6 1018.9 0.0000 0.0000
08:59 15.9 11.1 73 168 0.3 0.6 1018.8 0.0000 0.0000
09:09 16 11.4 74 0 0.3 1018.9 0.0000 0.0000
09:20 16.1 11.5 74 0 0.3 1018.9 0.0000 0.0000
09:30 16.3 11.5 73 0 0.3 1019 0.0000 0.0000
09:40 16.3 11.5 73 198 0.3 0.6 1019.1 0.0000 0.0000
09:49 16.3 11.5 73 90 0.3 0.6 1019.1 0.0000 0.0000
10:00 16.5 11.6 73 225 0.3 0.3 1019.1 0.0000 0.0000
10:10 16.7 11.8 73 228 0.8 2.5 1019 0.0000 0.0000
10:20 17 12.1 73 230 1.1 2.5 1019 0.0000 0.0000
10:31 17.3 12.4 73 171 0.3 0.6 1019.2 0.0000 0.0000
10:41 17.6 12.5 72 194 0.3 0.6 1019.2 0.0000 0.0000
10:50 17.9 12.6 71 209 0.3 0.6 1019.3 0.0000 0.0000
11:00 18.1 12.5 70 180 0.3 0.6 1019.3 0.0000 0.0000
11:11 18.3 12.7 70 270 0.3 0.8 1019.5 0.0000 0.0000
11:21 18.4 12.6 69 225 0.6 1.4 1019.5 0.0000 0.0000
11:31 18.3 12.7 70 270 1.1 1.9 1019.5 0.0000 0.0000
11:41 18.2 12.6 70 270 1.1 1.7 1019.5 0.0000 0.0000
11:51 18.1 12.5 70 270 0.8 1.7 1019.7 0.0000 0.0000
12:01 18 12.5 70 270 1.1 1.4 1019.7 0.0000 0.0000
12:11 18 12.5 70 270 0.8 1.4 1019.8 0.0000 0.0000
12:22 18 12.5 70 270 0.8 1.7 1019.9 0.0000 0.0000
12:32 18 12.5 70 270 0.8 1.4 1019.8 0.0000 0.0000
12:42 18 12.5 70 270 0.8 1.4 1019.9 0.0000 0.0000
12:51 18 12.2 69 270 0.8 1.4 1019.8 0.0000 0.0000
13:02 18 12.5 70 270 0.8 1.1 1019.7 0.0000 0.0000
13:12 18 12.5 70 237 0.3 0.8 1019.7 0.0000 0.0000
13:22 18.1 12.5 70 156 0.3 0.6 1019.8 0.0000 0.0000
13:33 18.4 12.8 70 153 0.3 0.6 1019.6 0.0000 0.0000
13:43 18.7 12.9 69 0.3 0.6 1019.5 0.0000 0.0000
13:53 19.2 13.2 68 225 0.3 0.6 1019.4 0.0000 0.0000
14:02 19.5 13 66 270 0.3 0.6 1019 0.0000 0.0000
14:13 19.8 13 65 270 0.3 0.8 1018.9 0.0000 0.0000
14:23 20 13.2 65 186 0.3 0.8 1018.8 0.0000 0.0000
14:33 20.6 13.6 64 236 0.3 0.8 1018.8 0.0000 0.0000
14:49 21.4 13.8 62 270 0.3 0.8 1018.7 0.0000 0.0000
14:58 21.8 14 61 0 0.3 1018.6 0.0000 0.0000
15:08 22.2 13.8 59 270 0.3 0.8 1018.4 0.0000 0.0000
15:18 22.5 14.1 59 180 0.3 0.6 1018.4 0.0000 0.0000
15:29 22.8 14.1 58 156 0.3 0.6 1018.3 0.0000 0.0000
15:39 23 14 57 168 0.3 0.6 1018.2 0.0000 0.0000
15:59 22.9 13.9 57 270 0.3 1.1 1018.1 0.0000 0.0000
16:09 22.8 13.8 57 270 0.6 1.1 1018 0.0000 0.0000
16:19 22.9 13.9 57 270 0.3 0.8 1017.9 0.0000 0.0000
16:29 22.9 14.5 59 216 0.3 0.6 1018.1 0.0000 0.0000
16:50 22.6 13.9 58 270 0.6 1.1 1017.9 0.0000 0.0000
16:59 22.4 13.7 58 270 0.3 0.8 1018 0.0000 0.0000
17:10 22.2 13.6 58 270 0.3 0.8 1018.1 0.0000 0.0000
17:20 22 13.6 59 0 0.3 0.8 1018 0.0000 0.0000
17:30 21.9 14.3 62 74 0.6 1.1 1017.9 0.0000 0.0000
17:39 21.8 13.7 60 56 0.6 1.1 1017.8 0.0000 0.0000
17:50 21.5 13.7 61 90 0.6 1.1 1017.8 0.0000 0.0000
18:00 21.4 13.6 61 66 0.6 1.4 1017.7 0.0000 0.0000
18:10 21 13.4 62 261 1.1 1.9 1017.7 0.0000 0.0000
18:20 20.6 13.3 63 280 1.1 1.9 1017.8 0.0000 0.0000
18:30 20.5 13.7 65 278 1.1 1.9 1017.8 0.0000 0.0000
18:40 20.9 13.8 64 278 1.1 1.7 1017.7 0.0000 0.0000
18:50 21.1 13.8 63 270 1.1 1.7 1017.8 0.0000 0.0000
19:01 21.2 13.9 63 270 1.1 1.7 1017.9 0.0000 0.0000
19:11 21.2 13.6 62 270 0.8 1.4 1017.9 0.0000 0.0000
19:20 21.2 13.9 63 270 0.8 1.7 1018 0.0000 0.0000
19:31 21.2 13.9 63 270 0.8 1.4 1018 0.0000 0.0000
19:41 21.1 13.8 63 270 0.8 1.4 1018.1 0.0000 0.0000
19:51 21.1 13.5 62 270 0.8 1.4 1017.9 0.0000 0.0000
20:01 21 13.4 62 270 0.8 1.1 1017.7 0.0000 0.0000
20:11 21 13.4 62 270 0.8 1.4 1017.6 0.0000 0.0000
20:21 20.9 13.4 62 270 0.8 1.1 1017.5 0.0000 0.0000
20:31 20.7 12.9 61 270 0.8 1.1 1017.6 0.0000 0.0000
20:41 19.9 12.7 63 270 0.8 1.4 1017.4 0.0000 0.0000
20:52 19.3 12.6 65 270 0.8 1.4 1017.2 0.0000 0.0000
21:01 18.9 12.4 66 270 0.8 1.7 1017.1 0.0000 0.0000
21:11 18.4 12.2 67 270 0.8 1.7 1017 0.0000 0.0000
21:22 18.1 12.1 68 270 0.8 1.7 1017.1 0.0000 0.0000
21:32 18.2 12 67 270 0.8 1.4 1017.2 0.0000 0.0000
21:41 17.9 11.9 68 270 0.8 1.1 1017.3 0.0000 0.0000
21:52 17.7 11.9 69 270 0.8 1.4 1017.3 0.0000 0.0000
22:02 17.5 11.8 69 270 0.8 1.7 1017.3 0.0000 0.0000
22:12 17.4 12.1 71 270 0.8 1.1 1017.2 0.0000 0.0000
22:22 17.7 11.9 69 270 0.8 1.1 1017.1 0.0000 0.0000
22:32 17.5 11.8 69 270 0.6 1.1 1017 0.0000 0.0000
22:42 17.2 11.7 70 270 0.8 1.7 1016.9 0.0000 0.0000
22:52 17 11.7 71 270 0.8 1.4 1016.8 0.0000 0.0000
23:02 16.8 11.5 71 270 0.8 1.1 1016.8 0.0000 0.0000
23:13 16.7 11.4 71 270 0.6 1.1 1016.8 0.0000 0.0000
23:22 16.6 11.5 72 270 0.6 1.1 1016.9 0.0000 0.0000
23:32 16.5 11.4 72 213 0.3 0.8 1016.8 0.0000 0.0000
23:43 16.5 11.4 72 161 0.3 0.6 1016.7 0.0000
23:53 16.4 11.3 72 0 0.6 1016.5 0.0000

DAY STATISTIC

2019-10-22
TEMPERATURE
AVERAGE
18.2
HIGH
23.0
15:39
LOW
15.7
04:51
PRESSURE
AVERAGE
1018.3
HIGH
1019.9
12:22
LOW
1016.5
23:53
DEWPOINT
AVERAGE
12.3
HIGH
14.5
16:29
LOW
11.0
08:39
HUMIDITY
AVERAGE
69
HIGH
76
06:37
LOW
57
15:39
WIND SPEED
AVERAGE
0.5
HIGH
1.1
10:20
WIND GUST
AVERAGE
1.0
HIGH
2.5
10:10
WIND DIRECTION
PREVAILING
W
38.1%
N
0.7
NE
1.4
E
2.2
SE
5.0
S
8.6
SW
30.9
W
38.1
NW
0.0
PRECIPITATION
RAIN HOUR
0.0
RAIN DAY
0.0
TEMPERATURE (°C)
LOW
15.7
HIGH
23.0
AVERAGE
18.2
PRESSURE (hpa)
LOW
1016.5
HIGH
1019.9
AVERAGE
1018.3
DEVICE